createdAt,value
2022-08-30T00:00:35.594Z,20.96
2022-08-30T00:03:07.114Z,20.91
2022-08-30T00:05:40.236Z,20.88
2022-08-30T00:08:11.368Z,20.84
2022-08-30T00:10:43.710Z,20.81
2022-08-30T00:13:15.223Z,20.80
2022-08-30T00:15:45.833Z,20.76
2022-08-30T00:18:18.196Z,20.75
2022-08-30T00:20:52.493Z,20.74
2022-08-30T00:23:23.285Z,20.69
2022-08-30T00:25:53.450Z,20.67
2022-08-30T00:28:24.775Z,20.64
2022-08-30T00:30:55.091Z,20.62
2022-08-30T00:33:25.847Z,20.61
2022-08-30T00:35:59.317Z,20.59
2022-08-30T00:38:29.755Z,20.56
2022-08-30T00:41:00.477Z,20.52
2022-08-30T00:43:36.708Z,20.47
2022-08-30T00:46:08.787Z,20.44
2022-08-30T00:48:42.013Z,20.42
2022-08-30T00:51:17.116Z,20.37
2022-08-30T00:53:51.311Z,20.32
2022-08-30T00:56:22.245Z,20.30
2022-08-30T00:58:56.920Z,20.29
2022-08-30T01:01:28.321Z,20.27
2022-08-30T01:04:02.427Z,20.26
2022-08-30T01:06:35.906Z,20.24
2022-08-30T01:09:08.151Z,20.13
2022-08-30T01:11:41.877Z,20.09
2022-08-30T01:14:13.113Z,20.04
2022-08-30T01:16:46.391Z,20.04
2022-08-30T01:19:31.351Z,20.03
2022-08-30T01:22:08.620Z,19.97
2022-08-30T01:24:41.518Z,20.00
2022-08-30T01:27:11.733Z,20.03
2022-08-30T01:29:45.246Z,20.01
2022-08-30T01:32:21.246Z,20.01
2022-08-30T01:34:51.698Z,19.97
2022-08-30T01:37:28.069Z,19.97
2022-08-30T01:40:01.136Z,19.93
2022-08-30T01:42:31.547Z,19.94
2022-08-30T01:45:01.922Z,19.93
2022-08-30T01:47:33.282Z,19.94
2022-08-30T01:50:03.912Z,19.90
2022-08-30T01:52:34.189Z,19.89
2022-08-30T01:55:08.955Z,19.87
2022-08-30T01:57:39.345Z,19.87
2022-08-30T02:00:12.870Z,19.87
2022-08-30T02:02:44.005Z,19.83
2022-08-30T02:05:14.925Z,19.84
2022-08-30T02:07:45.456Z,19.84
2022-08-30T02:10:18.495Z,19.83
2022-08-30T02:12:48.750Z,19.82
2022-08-30T02:15:19.521Z,19.80
2022-08-30T02:17:49.779Z,19.79
2022-08-30T02:20:20.573Z,19.73
2022-08-30T02:22:51.054Z,19.76
2022-08-30T02:25:25.072Z,19.76
2022-08-30T02:27:55.258Z,19.73
2022-08-30T02:30:25.790Z,19.70
2022-08-30T02:32:55.982Z,19.63
2022-08-30T02:35:26.478Z,19.60
2022-08-30T02:37:57.134Z,19.53
2022-08-30T02:40:30.029Z,19.48
2022-08-30T02:43:00.391Z,19.46
2022-08-30T02:45:30.956Z,19.41
2022-08-30T02:48:01.356Z,19.35
2022-08-30T02:50:32.062Z,19.27
2022-08-30T02:53:02.210Z,19.29
2022-08-30T02:55:35.108Z,19.28
2022-08-30T02:58:05.505Z,19.23
2022-08-30T03:00:35.723Z,19.23
2022-08-30T03:03:07.623Z,19.19
2022-08-30T03:05:39.741Z,19.18
2022-08-30T03:08:11.031Z,19.15
2022-08-30T03:10:43.934Z,19.06
2022-08-30T03:13:14.163Z,19.14
2022-08-30T03:15:44.407Z,19.11
2022-08-30T03:18:14.554Z,19.08
2022-08-30T03:20:46.328Z,19.00
2022-08-30T03:23:25.991Z,18.98
2022-08-30T03:25:58.776Z,18.98
2022-08-30T03:28:29.789Z,18.97
2022-08-30T03:31:00.007Z,18.95
2022-08-30T03:33:30.442Z,18.95
2022-08-30T03:36:01.985Z,18.92
2022-08-30T03:38:32.107Z,18.88
2022-08-30T03:41:05.785Z,18.87
2022-08-30T03:43:37.717Z,18.88
2022-08-30T03:46:08.724Z,18.85
2022-08-30T03:48:38.964Z,18.83
2022-08-30T03:51:09.453Z,18.79
2022-08-30T03:53:39.615Z,18.76
2022-08-30T03:56:12.882Z,18.73
2022-08-30T03:58:43.315Z,18.74
2022-08-30T04:01:13.848Z,18.71
2022-08-30T04:03:44.097Z,18.71
2022-08-30T04:06:14.697Z,18.71
2022-08-30T04:08:46.157Z,18.74
2022-08-30T04:11:19.026Z,18.71
2022-08-30T04:13:51.903Z,18.71
2022-08-30T04:16:22.683Z,18.68
2022-08-30T04:18:52.949Z,18.63
2022-08-30T04:21:23.257Z,18.62
2022-08-30T04:23:53.536Z,18.59
2022-08-30T04:26:29.174Z,18.63
2022-08-30T04:29:00.039Z,18.69
2022-08-30T04:31:31.285Z,18.77
2022-08-30T04:34:01.577Z,18.81
2022-08-30T04:36:31.772Z,18.87
2022-08-30T04:39:02.291Z,18.96
2022-08-30T04:41:35.179Z,18.96
2022-08-30T04:44:06.251Z,19.06
2022-08-30T04:46:44.389Z,19.04
2022-08-30T04:49:14.816Z,19.15
2022-08-30T04:51:45.106Z,19.12
2022-08-30T04:54:15.339Z,19.17
2022-08-30T04:56:48.148Z,19.28
2022-08-30T04:59:20.503Z,19.30
2022-08-30T05:01:50.938Z,19.25
2022-08-30T05:04:21.135Z,19.36
2022-08-30T05:06:51.539Z,19.36
2022-08-30T05:09:22.021Z,19.40
2022-08-30T05:11:55.208Z,19.50
2022-08-30T05:14:25.342Z,19.62
2022-08-30T05:16:55.589Z,19.87
2022-08-30T05:19:25.895Z,20.23
2022-08-30T05:21:56.168Z,20.88
2022-08-30T05:24:26.298Z,20.91
2022-08-30T05:26:59.418Z,21.08
2022-08-30T05:29:29.676Z,21.28
2022-08-30T05:31:59.937Z,21.37
2022-08-30T05:34:32.927Z,21.72
2022-08-30T05:37:03.333Z,22.21
2022-08-30T05:39:44.900Z,22.74
2022-08-30T05:42:23.912Z,22.51
2022-08-30T05:44:55.049Z,22.53
2022-08-30T05:47:25.363Z,22.96
2022-08-30T05:49:55.680Z,23.39
2022-08-30T05:52:28.078Z,23.40
2022-08-30T05:55:00.457Z,23.89
2022-08-30T05:57:35.393Z,24.18
2022-08-30T06:00:12.040Z,24.46
2022-08-30T06:02:42.414Z,24.73
2022-08-30T06:05:14.642Z,25.02
2022-08-30T06:07:45.379Z,25.19
2022-08-30T06:10:15.661Z,25.03
2022-08-30T06:12:50.102Z,24.87
2022-08-30T06:15:20.477Z,24.37
2022-08-30T06:17:51.372Z,24.46
2022-08-30T06:20:21.640Z,24.68
2022-08-30T06:22:51.939Z,24.63
2022-08-30T06:25:22.164Z,24.58
2022-08-30T06:27:56.586Z,24.64
2022-08-30T06:30:26.970Z,24.84
2022-08-30T06:32:57.151Z,25.30
2022-08-30T06:35:28.140Z,26.01
2022-08-30T06:37:58.646Z,26.70
2022-08-30T06:40:29.044Z,27.07
2022-08-30T06:43:01.934Z,26.95
2022-08-30T06:45:32.233Z,27.18
2022-08-30T06:48:02.566Z,27.78
2022-08-30T06:50:32.770Z,28.39
2022-08-30T06:53:06.115Z,28.43
2022-08-30T06:55:36.320Z,28.91
2022-08-30T06:58:09.802Z,29.20
2022-08-30T07:00:41.989Z,29.30
2022-08-30T07:03:12.205Z,29.60
2022-08-30T07:05:42.430Z,29.92
2022-08-30T07:08:12.704Z,30.08
2022-08-30T07:10:43.108Z,29.73
2022-08-30T07:13:16.329Z,29.66
2022-08-30T07:15:47.200Z,29.46
2022-08-30T07:18:30.635Z,29.54
2022-08-30T07:21:02.031Z,30.00
2022-08-30T07:23:32.226Z,29.95
2022-08-30T07:26:07.986Z,29.91
2022-08-30T07:28:41.603Z,29.96
2022-08-30T07:31:12.752Z,30.06
2022-08-30T07:33:43.384Z,29.89
2022-08-30T07:36:14.459Z,29.95
2022-08-30T07:38:44.831Z,30.10
2022-08-30T07:41:21.524Z,29.87
2022-08-30T07:43:54.504Z,30.18
2022-08-30T07:46:25.936Z,30.37
2022-08-30T07:48:58.846Z,30.37
2022-08-30T07:51:30.733Z,30.35
2022-08-30T07:54:01.082Z,30.34
2022-08-30T07:56:31.458Z,30.73
2022-08-30T07:59:04.452Z,30.98
2022-08-30T08:01:34.819Z,31.03
2022-08-30T08:04:05.790Z,31.19
2022-08-30T08:06:36.014Z,31.29
2022-08-30T08:09:06.931Z,31.77
2022-08-30T08:11:37.709Z,31.64
2022-08-30T08:14:11.759Z,31.73
2022-08-30T08:16:44.899Z,31.41
2022-08-30T08:19:15.232Z,31.21
2022-08-30T08:21:45.461Z,31.34
2022-08-30T08:24:16.550Z,31.44
2022-08-30T08:26:46.765Z,31.21
2022-08-30T08:29:19.599Z,31.10
2022-08-30T08:31:49.908Z,31.20
2022-08-30T08:34:23.473Z,30.68
2022-08-30T08:36:56.725Z,30.69
2022-08-30T08:39:26.616Z,30.34
2022-08-30T08:42:07.086Z,30.57
2022-08-30T08:44:54.774Z,30.76
2022-08-30T08:47:32.795Z,31.16
2022-08-30T08:50:06.621Z,30.88
2022-08-30T08:53:03.398Z,30.80
2022-08-30T08:55:33.650Z,31.02
2022-08-30T08:58:04.974Z,31.09
2022-08-30T09:00:37.855Z,30.96
2022-08-30T09:03:08.941Z,30.51
2022-08-30T09:05:43.800Z,31.05
2022-08-30T09:08:17.122Z,31.19
2022-08-30T09:10:57.074Z,31.53
2022-08-30T09:13:28.515Z,31.66
2022-08-30T09:16:02.059Z,31.63
2022-08-30T09:18:45.656Z,31.74
2022-08-30T09:21:17.668Z,31.99
2022-08-30T09:23:54.117Z,32.13
2022-08-30T09:26:32.603Z,32.22
2022-08-30T09:29:05.140Z,32.25
2022-08-30T09:32:01.301Z,32.58
2022-08-30T09:34:40.577Z,32.31
2022-08-30T09:37:31.852Z,32.57
2022-08-30T09:40:03.186Z,32.56
2022-08-30T09:42:33.553Z,32.65
2022-08-30T09:45:13.317Z,32.89
2022-08-30T09:47:46.740Z,32.66
2022-08-30T09:50:20.080Z,32.52
2022-08-30T09:53:02.805Z,32.30
2022-08-30T09:55:46.772Z,32.71
2022-08-30T09:58:29.938Z,32.26
2022-08-30T10:01:09.590Z,31.96
2022-08-30T10:03:51.623Z,31.59
2022-08-30T10:06:31.900Z,29.96
2022-08-30T10:09:14.654Z,30.49
2022-08-30T10:11:56.488Z,30.93
2022-08-30T10:14:52.932Z,30.20
2022-08-30T10:17:39.376Z,30.15
2022-08-30T10:20:22.095Z,30.23
2022-08-30T10:22:59.110Z,30.63
2022-08-30T10:25:35.148Z,30.90
2022-08-30T10:28:16.012Z,31.26
2022-08-30T10:30:51.261Z,31.11
2022-08-30T10:33:31.777Z,31.12
2022-08-30T10:36:10.335Z,30.97
2022-08-30T10:38:43.965Z,30.07
2022-08-30T10:41:22.541Z,30.03
2022-08-30T10:44:00.061Z,29.99
2022-08-30T10:46:37.426Z,29.95
2022-08-30T10:49:12.986Z,29.96
2022-08-30T10:51:52.808Z,29.92
2022-08-30T10:54:31.413Z,30.27
2022-08-30T10:57:02.948Z,30.97
2022-08-30T10:59:33.563Z,31.38
2022-08-30T11:02:45.012Z,31.13
2022-08-30T11:05:31.390Z,30.88
2022-08-30T11:08:22.070Z,30.45
2022-08-30T11:11:05.029Z,30.20
2022-08-30T11:13:38.850Z,30.32
2022-08-30T11:16:15.525Z,30.04
2022-08-30T11:18:51.039Z,29.84
2022-08-30T11:21:36.977Z,29.99
2022-08-30T11:24:12.993Z,30.16
2022-08-30T11:27:00.117Z,30.72
2022-08-30T11:29:37.428Z,30.92
2022-08-30T11:32:27.985Z,30.46
2022-08-30T11:35:02.703Z,30.46
2022-08-30T11:37:39.722Z,31.15
2022-08-30T11:40:35.727Z,31.33
2022-08-30T11:43:45.678Z,31.28
2022-08-30T11:46:24.465Z,31.36
2022-08-30T11:48:56.850Z,30.92
2022-08-30T11:52:08.414Z,30.59
2022-08-30T11:55:00.210Z,30.85
2022-08-30T11:57:40.647Z,30.72
2022-08-30T12:00:15.264Z,30.52
2022-08-30T12:02:54.842Z,30.22
2022-08-30T12:05:51.439Z,30.06
2022-08-30T12:08:56.479Z,30.21
2022-08-30T12:12:02.761Z,29.84
2022-08-30T12:14:47.815Z,30.15
2022-08-30T12:17:47.299Z,30.14
2022-08-30T12:20:23.924Z,30.49
2022-08-30T12:22:55.622Z,30.64
2022-08-30T12:25:33.623Z,30.86
2022-08-30T12:28:17.998Z,31.00
2022-08-30T12:30:51.039Z,31.07
2022-08-30T12:33:39.512Z,31.08
2022-08-30T12:36:15.802Z,30.99
2022-08-30T12:38:46.529Z,31.16
2022-08-30T12:41:23.573Z,31.41
2022-08-30T12:43:56.063Z,31.51
2022-08-30T12:46:30.142Z,31.53
2022-08-30T12:49:01.005Z,30.35
2022-08-30T12:51:41.180Z,31.16
2022-08-30T12:54:19.059Z,31.35
2022-08-30T12:57:10.029Z,31.43
2022-08-30T12:59:58.165Z,31.32
2022-08-30T13:02:46.835Z,31.37
2022-08-30T13:05:40.258Z,31.78
2022-08-30T13:08:22.474Z,31.89
2022-08-30T13:11:07.999Z,32.06
2022-08-30T13:13:44.460Z,31.54
2022-08-30T13:16:26.482Z,31.08
2022-08-30T13:19:22.730Z,31.26
2022-08-30T13:21:55.427Z,31.34
2022-08-30T13:24:26.234Z,31.20
2022-08-30T13:26:57.132Z,31.02
2022-08-30T13:29:30.158Z,31.14
2022-08-30T13:32:01.049Z,31.02
2022-08-30T13:34:36.449Z,30.88
2022-08-30T13:37:44.358Z,31.05
2022-08-30T13:40:04.774Z,31.11
2022-08-30T13:42:35.329Z,31.13
2022-08-30T13:45:40.795Z,31.11
2022-08-30T13:47:57.989Z,31.27
2022-08-30T13:50:30.918Z,31.21
2022-08-30T13:53:01.146Z,31.42
2022-08-30T13:55:31.919Z,31.65
2022-08-30T13:58:02.173Z,31.95
2022-08-30T14:00:37.632Z,32.02
2022-08-30T14:03:09.000Z,31.70
2022-08-30T14:06:00.378Z,31.55
2022-08-30T14:08:54.781Z,31.60
2022-08-30T14:11:25.763Z,31.47
2022-08-30T14:16:47.671Z,31.20
2022-08-30T14:19:19.107Z,31.20
2022-08-30T14:21:51.921Z,31.21
2022-08-30T14:24:23.357Z,31.32
2022-08-30T14:26:54.756Z,31.11
2022-08-30T14:29:30.050Z,31.19
2022-08-30T14:32:00.884Z,31.27
2022-08-30T14:34:31.628Z,30.87
2022-08-30T14:37:06.970Z,31.02
2022-08-30T14:39:39.019Z,31.16
2022-08-30T14:42:11.533Z,31.04
2022-08-30T14:44:56.207Z,31.02
2022-08-30T14:47:29.476Z,31.08
2022-08-30T14:50:02.083Z,31.10
2022-08-30T14:52:35.618Z,30.99
2022-08-30T14:55:09.765Z,30.93
2022-08-30T14:57:40.621Z,30.84
2022-08-30T15:00:14.685Z,30.86
2022-08-30T15:02:44.999Z,30.80
2022-08-30T15:05:15.354Z,30.84
2022-08-30T15:07:50.694Z,30.79
2022-08-30T15:10:21.357Z,30.65
2022-08-30T15:12:53.691Z,30.65
2022-08-30T15:15:25.458Z,30.69
2022-08-30T15:17:55.674Z,30.33
2022-08-30T15:20:27.688Z,30.22
2022-08-30T15:23:00.574Z,30.29
2022-08-30T15:25:31.279Z,30.19
2022-08-30T15:28:01.626Z,30.22
2022-08-30T15:30:31.943Z,30.10
2022-08-30T15:33:02.114Z,30.03
2022-08-30T15:35:32.341Z,29.95
2022-08-30T15:38:05.253Z,29.86
2022-08-30T15:40:35.621Z,29.72
2022-08-30T15:43:06.570Z,29.67
2022-08-30T15:45:37.146Z,29.69
2022-08-30T15:48:07.519Z,29.65
2022-08-30T15:50:38.013Z,29.51
2022-08-30T15:53:13.364Z,29.60
2022-08-30T15:55:43.620Z,29.72
2022-08-30T15:58:13.856Z,29.75
2022-08-30T16:00:45.669Z,29.81
2022-08-30T16:03:16.266Z,29.83
2022-08-30T16:05:50.392Z,29.87
2022-08-30T16:08:23.291Z,29.88
2022-08-30T16:10:54.928Z,29.89
2022-08-30T16:13:25.356Z,29.91
2022-08-30T16:15:55.655Z,29.87
2022-08-30T16:18:25.942Z,29.85
2022-08-30T16:21:05.406Z,29.87
2022-08-30T16:23:39.168Z,29.86
2022-08-30T16:26:12.137Z,29.75
2022-08-30T16:28:44.863Z,29.66
2022-08-30T16:31:15.700Z,29.68
2022-08-30T16:33:46.060Z,29.68
2022-08-30T16:36:16.646Z,29.54
2022-08-30T16:38:49.607Z,29.50
2022-08-30T16:41:24.666Z,29.48
2022-08-30T16:43:55.364Z,29.43
2022-08-30T16:46:28.189Z,29.30
2022-08-30T16:49:01.539Z,29.22
2022-08-30T16:51:33.702Z,29.10
2022-08-30T16:54:09.791Z,29.03
2022-08-30T16:56:40.632Z,28.91
2022-08-30T16:59:12.307Z,28.87
2022-08-30T17:01:44.906Z,28.68
2022-08-30T17:04:18.855Z,28.61
2022-08-30T17:06:51.454Z,28.51
2022-08-30T17:09:24.500Z,28.37
2022-08-30T17:11:56.431Z,28.29
2022-08-30T17:14:28.253Z,28.21
2022-08-30T17:17:00.931Z,28.09
2022-08-30T17:19:31.566Z,27.99
2022-08-30T17:22:01.954Z,27.89
2022-08-30T17:24:34.830Z,27.80
2022-08-30T17:27:05.099Z,27.71
2022-08-30T17:29:35.781Z,27.65
2022-08-30T17:32:06.865Z,27.59
2022-08-30T17:34:37.083Z,27.53
2022-08-30T17:37:07.716Z,27.47
2022-08-30T17:39:40.721Z,27.41
2022-08-30T17:42:10.942Z,27.35
2022-08-30T17:44:42.407Z,27.28
2022-08-30T17:47:13.127Z,27.22
2022-08-30T17:49:43.436Z,27.24
2022-08-30T17:52:14.109Z,27.20
2022-08-30T17:54:46.934Z,27.23
2022-08-30T17:57:17.184Z,27.23
2022-08-30T17:59:47.438Z,27.28
2022-08-30T18:02:21.483Z,27.29
2022-08-30T18:05:01.050Z,27.31
2022-08-30T18:07:31.433Z,27.00
2022-08-30T18:10:05.615Z,27.15
2022-08-30T18:12:35.979Z,27.01
2022-08-30T18:15:12.632Z,27.06
2022-08-30T18:17:49.095Z,26.91
2022-08-30T18:20:20.202Z,26.91
2022-08-30T18:22:52.634Z,26.97
2022-08-30T18:25:25.577Z,26.91
2022-08-30T18:27:58.885Z,26.91
2022-08-30T18:30:34.740Z,26.75
2022-08-30T18:33:10.252Z,26.82
2022-08-30T18:35:47.436Z,26.61
2022-08-30T18:38:19.024Z,26.49
2022-08-30T18:41:01.385Z,26.46
2022-08-30T18:43:31.908Z,26.33
2022-08-30T18:46:05.717Z,26.43
2022-08-30T18:48:37.010Z,26.34
2022-08-30T18:51:07.965Z,26.25
2022-08-30T18:53:40.664Z,26.11
2022-08-30T18:56:16.362Z,25.95
2022-08-30T18:58:47.698Z,26.05
2022-08-30T19:01:22.752Z,26.03
2022-08-30T19:03:53.285Z,25.99
2022-08-30T19:06:23.536Z,25.83
2022-08-30T19:08:54.609Z,25.88
2022-08-30T19:11:28.075Z,25.89
2022-08-30T19:13:58.606Z,25.82
2022-08-30T19:16:28.796Z,25.70
2022-08-30T19:18:59.165Z,25.67
2022-08-30T19:21:29.402Z,25.60
2022-08-30T19:23:59.779Z,25.57
2022-08-30T19:26:32.838Z,25.33
2022-08-30T19:29:03.111Z,25.46
2022-08-30T19:31:33.820Z,25.39
2022-08-30T19:34:03.984Z,25.33
2022-08-30T19:36:34.227Z,25.20
2022-08-30T19:39:04.574Z,25.11
2022-08-30T19:41:38.434Z,24.98
2022-08-30T19:44:09.680Z,24.94
2022-08-30T19:46:40.089Z,24.85
2022-08-30T19:49:11.454Z,24.74
2022-08-30T19:51:46.589Z,24.63
2022-08-30T19:56:50.220Z,24.51
2022-08-30T19:59:22.798Z,24.47
2022-08-30T20:01:53.564Z,24.44
2022-08-30T20:04:24.404Z,24.30
2022-08-30T20:06:54.668Z,24.36
2022-08-30T20:09:25.284Z,24.32
2022-08-30T20:14:51.696Z,24.27
2022-08-30T20:17:24.574Z,24.24
2022-08-30T20:19:55.001Z,24.17
2022-08-30T20:22:25.261Z,24.07
2022-08-30T20:24:56.983Z,24.12
2022-08-30T20:27:30.375Z,24.01
2022-08-30T20:30:00.769Z,23.92
2022-08-30T20:32:31.906Z,23.83
2022-08-30T20:35:02.215Z,23.74
2022-08-30T20:37:33.385Z,23.66
2022-08-30T20:40:04.984Z,23.53
2022-08-30T20:42:41.579Z,23.46
2022-08-30T20:45:13.428Z,23.35
2022-08-30T20:47:44.324Z,23.31
2022-08-30T20:50:18.254Z,23.22
2022-08-30T20:52:49.508Z,23.12
2022-08-30T20:55:20.240Z,23.06
2022-08-30T20:57:53.322Z,23.11
2022-08-30T21:00:26.653Z,23.14
2022-08-30T21:02:57.403Z,23.14
2022-08-30T21:05:29.115Z,23.06
2022-08-30T21:07:59.641Z,23.01
2022-08-30T21:10:30.966Z,22.95
2022-08-30T21:13:03.757Z,22.83
2022-08-30T21:15:37.700Z,22.71
2022-08-30T21:18:09.292Z,22.63
2022-08-30T21:20:39.526Z,22.57
2022-08-30T21:23:09.669Z,22.52
2022-08-30T21:25:41.319Z,22.43
2022-08-30T21:28:14.102Z,22.33
2022-08-30T21:30:47.614Z,22.25
2022-08-30T21:33:17.942Z,22.21
2022-08-30T21:36:00.528Z,22.12
2022-08-30T21:38:30.799Z,22.07
2022-08-30T21:41:01.057Z,22.03
2022-08-30T21:43:34.018Z,22.03
2022-08-30T21:46:08.496Z,21.97
2022-08-30T21:48:39.629Z,21.98
2022-08-30T21:51:11.160Z,21.85
2022-08-30T21:53:41.566Z,21.81
2022-08-30T21:56:13.223Z,21.82
2022-08-30T21:58:50.582Z,21.78
2022-08-30T22:01:23.675Z,21.70
2022-08-30T22:03:55.601Z,21.67
2022-08-30T22:06:30.744Z,21.63
2022-08-30T22:09:03.504Z,21.57
2022-08-30T22:11:37.734Z,21.54
2022-08-30T22:14:11.839Z,21.39
2022-08-30T22:16:42.826Z,21.46
2022-08-30T22:19:13.219Z,21.35
2022-08-30T22:21:48.088Z,21.37
2022-08-30T22:24:18.608Z,21.34
2022-08-30T22:26:49.604Z,21.19
2022-08-30T22:29:22.711Z,21.20
2022-08-30T22:31:53.013Z,21.20
2022-08-30T22:34:23.280Z,21.00
2022-08-30T22:36:53.458Z,21.15
2022-08-30T22:39:23.699Z,21.10
2022-08-30T22:41:53.936Z,21.11
2022-08-30T22:44:26.800Z,21.09
2022-08-30T22:46:57.098Z,21.08
2022-08-30T22:49:27.250Z,21.06
2022-08-30T22:51:57.508Z,21.03
2022-08-30T22:54:27.661Z,21.01
2022-08-30T22:56:57.872Z,21.01
2022-08-30T22:59:31.562Z,20.99
2022-08-30T23:02:03.308Z,20.96
2022-08-30T23:04:33.685Z,20.98
2022-08-30T23:07:03.835Z,20.97
2022-08-30T23:09:34.099Z,21.01
2022-08-30T23:12:04.792Z,21.03
2022-08-30T23:14:37.634Z,21.06
2022-08-30T23:17:07.954Z,21.18
2022-08-30T23:19:38.195Z,21.37
2022-08-30T23:22:08.377Z,21.40
2022-08-30T23:24:50.948Z,21.45
2022-08-30T23:27:33.928Z,21.44
2022-08-30T23:30:20.670Z,21.44
2022-08-30T23:33:03.184Z,21.42
2022-08-30T23:35:45.874Z,21.45
2022-08-30T23:38:29.003Z,21.57
2022-08-30T23:41:11.560Z,21.65
2022-08-30T23:43:54.539Z,21.63
2022-08-30T23:46:39.739Z,21.56
2022-08-30T23:49:22.453Z,21.47
2022-08-30T23:52:05.215Z,21.36
2022-08-30T23:54:47.870Z,21.28
2022-08-30T23:57:30.480Z,21.21
